Time;durP1;ratioP1;P1;durP2;ratioP2;P2;SDS_P1;SDS_P2;PMS_P1;PMS_P2;Temp;Humidity;BMP_temperature;BMP_pressure;BME280_temperature;BME280_humidity;BME280_pressure;Samples;Min_cycle;Max_cycle;Signal;HPM_P1;HPM_P2
2024/02/02 00:00:48;;;;;;;9.70;3.00;;;5.20;99.90;;;;;;5101489;27;20213;-74
2024/02/02 00:03:15;;;;;;;11.40;2.63;;;5.20;99.90;;;;;;5129563;27;20603;-74
2024/02/02 00:05:42;;;;;;;12.27;3.50;;;5.20;99.90;;;;;;5129474;27;20213;-73
2024/02/02 00:08:09;;;;;;;8.47;2.77;;;5.10;99.90;;;;;;5129319;27;20214;-74
2024/02/02 00:10:37;;;;;;;9.97;2.43;;;5.10;99.90;;;;;;5104220;27;20272;-74
2024/02/02 00:13:05;;;;;;;9.00;3.27;;;5.00;99.90;;;;;;5088287;28;20206;-73
2024/02/02 00:15:32;;;;;;;9.73;3.27;;;5.00;99.90;;;;;;5088264;28;20210;-73
2024/02/02 00:17:59;;;;;;;16.13;3.50;;;5.00;99.90;;;;;;5088083;28;20198;-74
2024/02/02 00:20:26;;;;;;;15.20;3.00;;;5.00;99.90;;;;;;5088411;28;20271;-74
2024/02/02 00:22:53;;;;;;;11.03;3.03;;;5.00;99.90;;;;;;5087760;28;20227;-74
2024/02/02 00:25:20;;;;;;;15.77;3.37;;;5.00;99.90;;;;;;5088029;28;20268;-73
2024/02/02 00:27:48;;;;;;;12.70;2.93;;;5.00;99.90;;;;;;5088100;28;20225;-74
2024/02/02 00:30:16;;;;;;;5.83;2.83;;;5.00;99.90;;;;;;5087599;28;20235;-73
2024/02/02 00:32:44;;;;;;;16.33;3.13;;;5.00;99.90;;;;;;5091736;28;20199;-74
2024/02/02 00:35:13;;;;;;;7.73;2.97;;;5.00;99.90;;;;;;5087925;28;20210;-74
2024/02/02 00:37:40;;;;;;;8.93;2.80;;;5.10;99.90;;;;;;5100040;28;20214;-74
2024/02/02 00:40:08;;;;;;;10.23;3.43;;;5.10;99.90;;;;;;5108042;28;20683;-74
2024/02/02 00:42:36;;;;;;;10.20;3.00;;;5.10;99.90;;;;;;5107312;28;20227;-74
2024/02/02 00:45:05;;;;;;;12.47;3.37;;;5.10;99.90;;;;;;5088698;28;20214;-73
2024/02/02 00:47:32;;;;;;;6.97;2.73;;;5.10;99.90;;;;;;5087683;28;20207;-72
2024/02/02 00:49:59;;;;;;;12.93;3.30;;;5.10;99.90;;;;;;5086976;28;20632;-72
2024/02/02 00:52:26;;;;;;;12.63;3.30;;;5.10;99.90;;;;;;5089989;28;20194;-72
2024/02/02 00:54:54;;;;;;;15.63;3.13;;;5.20;99.90;;;;;;5095084;28;20283;-72
2024/02/02 00:57:21;;;;;;;11.10;3.07;;;5.20;99.90;;;;;;5089035;28;20616;-73
2024/02/02 00:59:50;;;;;;;11.77;3.07;;;5.20;99.90;;;;;;5107726;28;20242;-73
2024/02/02 01:02:18;;;;;;;11.90;3.37;;;5.20;99.90;;;;;;5107406;28;20291;-73
2024/02/02 01:04:45;;;;;;;10.60;2.80;;;5.20;99.90;;;;;;5093964;28;20291;-72
2024/02/02 01:07:15;;;;;;;12.60;3.37;;;5.20;99.90;;;;;;5086733;28;20203;-72
2024/02/02 01:09:42;;;;;;;8.07;2.80;;;5.20;99.90;;;;;;5086914;28;20778;-72
2024/02/02 01:12:10;;;;;;;15.90;3.70;;;5.20;99.90;;;;;;5086850;28;20399;-72
2024/02/02 01:14:38;;;;;;;18.73;3.50;;;5.20;99.90;;;;;;5086988;28;20214;-72
2024/02/02 01:17:05;;;;;;;16.37;4.00;;;5.20;99.90;;;;;;5086941;28;20239;-72
2024/02/02 01:19:33;;;;;;;10.37;3.17;;;5.30;99.90;;;;;;5102437;28;20206;-72
2024/02/02 01:22:00;;;;;;;7.83;2.77;;;5.20;99.90;;;;;;5106911;28;20209;-72
2024/02/02 01:24:28;;;;;;;11.87;2.93;;;5.20;99.90;;;;;;5107220;28;20198;-72
2024/02/02 01:26:54;;;;;;;12.37;3.30;;;5.30;99.90;;;;;;5099342;28;20214;-73
2024/02/02 01:29:22;;;;;;;13.70;3.17;;;5.20;99.90;;;;;;5086701;28;20207;-72
2024/02/02 01:31:49;;;;;;;10.40;3.33;;;5.30;99.90;;;;;;5087483;28;20444;-72
2024/02/02 01:34:16;;;;;;;9.77;3.20;;;5.20;99.90;;;;;;5103686;28;20259;-72
2024/02/02 01:36:44;;;;;;;15.73;3.40;;;5.20;99.90;;;;;;5106756;28;20198;-73
2024/02/02 01:39:13;;;;;;;13.50;3.90;;;5.20;99.90;;;;;;5107130;28;20254;-73
2024/02/02 01:41:40;;;;;;;10.93;3.33;;;5.20;99.90;;;;;;5107003;28;20224;-72
2024/02/02 01:44:07;;;;;;;15.27;3.17;;;5.20;99.90;;;;;;5089360;28;20199;-72
2024/02/02 01:46:34;;;;;;;17.13;3.50;;;5.30;99.90;;;;;;5086884;28;20234;-72
2024/02/02 01:49:01;;;;;;;12.40;3.50;;;5.20;99.90;;;;;;5093885;28;20218;-72
2024/02/02 01:51:28;;;;;;;10.57;3.23;;;5.20;99.90;;;;;;5110956;28;20225;-72
2024/02/02 01:53:56;;;;;;;14.33;4.00;;;5.20;99.90;;;;;;5110821;28;20270;-72
2024/02/02 01:56:23;;;;;;;13.97;3.20;;;5.20;99.90;;;;;;5091413;28;20296;-72
2024/02/02 01:58:50;;;;;;;12.60;3.40;;;5.20;99.90;;;;;;5090858;28;20252;-72
2024/02/02 02:01:18;;;;;;;12.83;3.67;;;5.20;99.90;;;;;;5090548;28;20299;-72
2024/02/02 02:03:45;;;;;;;13.40;3.80;;;5.20;99.90;;;;;;5090776;28;20260;-72
2024/02/02 02:06:12;;;;;;;12.03;3.83;;;5.20;99.90;;;;;;5093036;28;20294;-72
2024/02/02 02:08:40;;;;;;;16.27;3.83;;;5.20;99.90;;;;;;5110508;28;20214;-72
2024/02/02 02:11:09;;;;;;;9.03;2.83;;;5.20;99.90;;;;;;5110634;28;20317;-72
2024/02/02 02:13:36;;;;;;;15.33;4.00;;;5.20;99.90;;;;;;5100029;28;20215;-72
2024/02/02 02:16:03;;;;;;;15.60;3.23;;;5.20;99.90;;;;;;5090206;28;20290;-72
2024/02/02 02:18:30;;;;;;;13.03;3.53;;;5.20;99.90;;;;;;5090045;28;20207;-72
2024/02/02 02:20:57;;;;;;;11.93;3.30;;;5.20;99.90;;;;;;5089866;28;20230;-72
2024/02/02 02:23:26;;;;;;;8.60;3.00;;;5.20;99.90;;;;;;5089838;28;20266;-72
2024/02/02 02:25:53;;;;;;;13.17;3.13;;;5.20;99.90;;;;;;5090084;28;20234;-72
2024/02/02 02:28:20;;;;;;;10.60;3.50;;;5.20;99.90;;;;;;5089692;28;20210;-72
2024/02/02 02:30:49;;;;;;;9.93;3.40;;;5.20;99.90;;;;;;5093302;28;20327;-72
2024/02/02 02:33:16;;;;;;;7.20;3.13;;;5.20;99.90;;;;;;5089791;28;20260;-72
2024/02/02 02:35:43;;;;;;;11.17;3.23;;;5.20;99.90;;;;;;5090862;28;20260;-71
2024/02/02 02:38:10;;;;;;;15.73;3.60;;;5.10;99.90;;;;;;5089809;28;20218;-71
2024/02/02 02:40:38;;;;;;;15.23;3.90;;;5.20;99.90;;;;;;5092033;28;20673;-71
2024/02/02 02:43:05;;;;;;;13.50;3.77;;;5.10;99.90;;;;;;5092310;28;20280;-71
2024/02/02 02:45:32;;;;;;;11.83;3.57;;;5.10;99.90;;;;;;5110070;28;20210;-72
2024/02/02 02:48:00;;;;;;;10.17;3.17;;;5.10;99.90;;;;;;5107819;28;20244;-71
2024/02/02 02:50:27;;;;;;;11.27;3.63;;;5.10;99.90;;;;;;5099704;28;20237;-71
2024/02/02 02:52:54;;;;;;;15.63;3.50;;;5.10;99.90;;;;;;5109661;28;20544;-72
2024/02/02 02:55:21;;;;;;;15.43;4.03;;;5.10;99.90;;;;;;5109864;28;20234;-71
2024/02/02 02:57:49;;;;;;;9.23;3.40;;;5.10;99.90;;;;;;5109695;28;20206;-72
2024/02/02 03:00:17;;;;;;;16.87;3.77;;;5.10;99.90;;;;;;5109346;28;20206;-71
2024/02/02 03:02:44;;;;;;;12.40;3.77;;;5.10;99.90;;;;;;5109007;28;20280;-71
2024/02/02 03:05:14;;;;;;;14.80;3.60;;;5.10;99.90;;;;;;5109296;28;20251;-71
2024/02/02 03:07:41;;;;;;;14.90;3.87;;;5.10;99.90;;;;;;5109475;28;20251;-72
2024/02/02 03:10:09;;;;;;;13.17;3.43;;;5.10;99.90;;;;;;5096532;28;20581;-72
2024/02/02 03:12:36;;;;;;;13.60;3.90;;;5.10;99.90;;;;;;5088726;28;20235;-72
2024/02/02 03:15:04;;;;;;;15.87;3.73;;;5.10;99.90;;;;;;5089392;28;20211;-72
2024/02/02 03:17:31;;;;;;;10.90;3.80;;;5.10;99.90;;;;;;5089270;28;20260;-73
2024/02/02 03:19:58;;;;;;;16.60;4.23;;;5.10;99.90;;;;;;5089031;28;20579;-72
2024/02/02 03:22:25;;;;;;;13.60;4.20;;;5.10;99.90;;;;;;5102279;28;20218;-72
2024/02/02 03:24:52;;;;;;;14.97;4.57;;;5.10;99.90;;;;;;5109750;27;20290;-72
2024/02/02 03:27:21;;;;;;;11.23;4.27;;;5.10;99.90;;;;;;5113698;27;20194;-72
2024/02/02 03:29:48;;;;;;;15.73;4.63;;;5.10;99.90;;;;;;5117314;27;20626;-72
2024/02/02 03:32:16;;;;;;;10.70;4.50;;;5.10;99.90;;;;;;5116942;27;20262;-72
2024/02/02 03:34:43;;;;;;;13.70;4.60;;;5.10;99.90;;;;;;5120257;27;20210;-72
2024/02/02 03:37:11;;;;;;;13.13;4.57;;;5.00;99.90;;;;;;5124686;27;20202;-72
2024/02/02 03:39:37;;;;;;;12.90;5.10;;;5.10;99.90;;;;;;5108639;28;20229;-72
2024/02/02 03:42:05;;;;;;;13.33;4.60;;;5.20;99.90;;;;;;5109113;28;20209;-73
2024/02/02 03:44:32;;;;;;;13.37;4.40;;;5.10;99.90;;;;;;5108508;28;20220;-73
2024/02/02 03:46:59;;;;;;;15.37;5.20;;;5.10;99.90;;;;;;5108550;28;20210;-72
2024/02/02 03:49:28;;;;;;;16.33;4.83;;;5.00;99.90;;;;;;5108786;28;20190;-73
2024/02/02 03:51:55;;;;;;;13.53;4.63;;;5.00;99.90;;;;;;5108836;28;20273;-72
2024/02/02 03:54:21;;;;;;;12.60;4.73;;;5.00;99.90;;;;;;5108364;28;20748;-72
2024/02/02 03:56:48;;;;;;;14.83;4.97;;;5.00;99.90;;;;;;5108402;28;20729;-72
2024/02/02 03:59:15;;;;;;;14.13;5.13;;;5.00;99.90;;;;;;5108194;28;20271;-71
2024/02/02 04:01:42;;;;;;;12.20;4.67;;;4.90;99.90;;;;;;5107712;28;20206;-71
2024/02/02 04:04:09;;;;;;;9.20;4.00;;;4.90;99.90;;;;;;5108287;28;20245;-71
2024/02/02 04:06:37;;;;;;;14.63;4.97;;;4.90;99.90;;;;;;5107667;28;20206;-71
2024/02/02 04:09:05;;;;;;;15.03;4.43;;;5.00;99.90;;;;;;5108015;28;20842;-71
2024/02/02 04:11:32;;;;;;;8.70;4.40;;;4.90;99.90;;;;;;5107995;28;20273;-73
2024/02/02 04:13:59;;;;;;;12.53;4.30;;;4.90;99.90;;;;;;5096716;28;20203;-71
2024/02/02 04:16:26;;;;;;;13.37;4.37;;;4.90;99.90;;;;;;5087832;28;20234;-73
2024/02/02 04:18:53;;;;;;;16.83;4.73;;;4.90;99.90;;;;;;5087803;28;20679;-73
2024/02/02 04:21:20;;;;;;;14.57;5.13;;;4.90;99.90;;;;;;5094617;28;20238;-72
2024/02/02 04:23:48;;;;;;;19.57;5.00;;;4.90;99.90;;;;;;5104112;28;20258;-73
2024/02/02 04:26:15;;;;;;;11.93;4.53;;;4.90;99.90;;;;;;5098007;28;20741;-72
2024/02/02 04:28:42;;;;;;;15.97;4.80;;;4.90;99.90;;;;;;5106100;28;20210;-73
2024/02/02 04:31:09;;;;;;;17.20;4.67;;;4.90;99.90;;;;;;5105726;28;20708;-73
2024/02/02 04:33:36;;;;;;;11.00;4.60;;;4.90;99.90;;;;;;5105901;28;20206;-72
2024/02/02 04:36:03;;;;;;;15.50;4.87;;;4.90;99.90;;;;;;5105865;28;20205;-72
2024/02/02 04:38:30;;;;;;;14.17;4.53;;;4.90;99.90;;;;;;5086934;28;20203;-72
2024/02/02 04:40:59;;;;;;;14.50;4.33;;;4.80;99.90;;;;;;5085120;28;20213;-72
2024/02/02 04:43:28;;;;;;;11.87;4.70;;;4.90;99.90;;;;;;5085019;28;20210;-72
2024/02/02 04:45:54;;;;;;;15.63;4.40;;;4.90;99.90;;;;;;5085338;28;20234;-73
2024/02/02 04:48:21;;;;;;;7.77;3.93;;;4.90;99.90;;;;;;5102658;28;20210;-73
2024/02/02 04:50:48;;;;;;;8.67;3.97;;;4.90;99.90;;;;;;5105420;28;20644;-73
2024/02/02 04:53:15;;;;;;;15.33;4.50;;;4.90;99.90;;;;;;5105042;28;20241;-73
2024/02/02 04:55:42;;;;;;;11.33;4.27;;;4.90;99.90;;;;;;5105559;28;20252;-73
2024/02/02 04:58:10;;;;;;;11.60;4.83;;;4.90;99.90;;;;;;5105765;28;20206;-73
2024/02/02 05:00:38;;;;;;;12.43;3.87;;;4.90;99.90;;;;;;5097271;28;20206;-72
2024/02/02 05:03:05;;;;;;;12.53;4.57;;;4.90;99.90;;;;;;5090427;28;20276;-72
2024/02/02 05:05:32;;;;;;;12.13;4.00;;;4.90;99.90;;;;;;5086195;28;20206;-72
2024/02/02 05:07:59;;;;;;;14.80;3.70;;;4.90;99.90;;;;;;5099132;28;20696;-72
2024/02/02 05:10:26;;;;;;;9.63;4.00;;;4.90;99.90;;;;;;5091296;28;20233;-72
2024/02/02 05:12:53;;;;;;;11.03;4.27;;;4.90;99.90;;;;;;5101459;28;20287;-72
2024/02/02 05:15:21;;;;;;;15.60;4.03;;;4.90;99.90;;;;;;5100358;28;20203;-73
2024/02/02 05:17:48;;;;;;;10.07;4.10;;;4.90;99.90;;;;;;5100502;28;20206;-73
2024/02/02 05:20:15;;;;;;;13.37;4.33;;;4.90;99.90;;;;;;5094658;28;20240;-73
2024/02/02 05:22:42;;;;;;;13.90;4.47;;;4.90;99.90;;;;;;5094475;28;20284;-73
2024/02/02 05:25:11;;;;;;;14.87;4.40;;;4.90;99.90;;;;;;5095004;28;20205;-72
2024/02/02 05:27:38;;;;;;;11.33;3.77;;;4.90;99.90;;;;;;5091501;28;20205;-72
2024/02/02 05:30:06;;;;;;;10.30;3.77;;;4.80;99.90;;;;;;5095983;28;20226;-73
2024/02/02 05:32:34;;;;;;;11.77;3.70;;;4.80;99.90;;;;;;5094061;28;20218;-72
2024/02/02 05:35:01;;;;;;;12.63;3.90;;;4.80;99.90;;;;;;5097418;28;20222;-73
2024/02/02 05:37:28;;;;;;;10.67;3.87;;;4.90;99.90;;;;;;5093634;28;20199;-72
2024/02/02 05:39:55;;;;;;;13.43;4.40;;;4.90;99.90;;;;;;5096675;28;20205;-72
2024/02/02 05:42:23;;;;;;;14.37;4.50;;;4.90;99.90;;;;;;5096625;28;20202;-73
2024/02/02 05:44:50;;;;;;;9.27;3.83;;;4.90;99.90;;;;;;5101251;28;20614;-73
2024/02/02 05:47:17;;;;;;;21.37;3.87;;;4.90;99.90;;;;;;5094167;28;20562;-73
2024/02/02 05:49:45;;;;;;;16.07;4.20;;;4.90;99.90;;;;;;5094901;28;20203;-73
2024/02/02 05:52:12;;;;;;;5.30;3.17;;;4.90;99.90;;;;;;5097717;28;20226;-73
2024/02/02 05:54:39;;;;;;;12.00;3.67;;;4.90;99.90;;;;;;5096096;28;20247;-73
2024/02/02 05:57:06;;;;;;;8.67;3.90;;;4.90;99.90;;;;;;5094203;28;20202;-73
2024/02/02 05:59:33;;;;;;;13.77;3.83;;;4.90;99.90;;;;;;5095227;28;20252;-72
2024/02/02 06:02:00;;;;;;;11.03;4.07;;;4.90;99.90;;;;;;5093387;28;20255;-72
2024/02/02 06:04:27;;;;;;;10.90;4.30;;;4.90;99.90;;;;;;5095768;28;20199;-72
2024/02/02 06:06:55;;;;;;;17.87;3.87;;;4.90;99.90;;;;;;5094279;28;20260;-73
2024/02/02 06:09:22;;;;;;;14.53;4.77;;;5.00;99.90;;;;;;5097794;28;20206;-72
2024/02/02 06:11:49;;;;;;;11.70;3.83;;;5.00;99.90;;;;;;5095413;28;20315;-73
2024/02/02 06:14:16;;;;;;;11.10;3.73;;;5.00;99.90;;;;;;5097121;28;20370;-73
2024/02/02 06:16:43;;;;;;;11.97;3.87;;;5.00;99.90;;;;;;5096205;28;20194;-73
2024/02/02 06:19:10;;;;;;;13.97;4.47;;;5.00;99.90;;;;;;5095392;28;20207;-73
2024/02/02 06:21:37;;;;;;;13.90;4.40;;;5.10;99.90;;;;;;5093364;28;20222;-73
2024/02/02 06:24:07;;;;;;;13.33;4.27;;;5.10;99.90;;;;;;5095111;28;20245;-73
2024/02/02 06:26:36;;;;;;;15.97;4.40;;;5.10;99.90;;;;;;5091416;28;20210;-73
2024/02/02 06:29:03;;;;;;;18.07;4.50;;;5.10;99.90;;;;;;5099913;28;20289;-73
2024/02/02 06:31:30;;;;;;;10.87;4.30;;;5.10;99.90;;;;;;5092267;28;20245;-73
2024/02/02 06:33:57;;;;;;;17.57;4.10;;;5.10;99.90;;;;;;5093322;28;20243;-73
2024/02/02 06:36:26;;;;;;;14.07;4.63;;;5.10;99.90;;;;;;5095472;28;20742;-73
2024/02/02 06:38:55;;;;;;;16.17;4.50;;;5.20;99.90;;;;;;5097895;28;20223;-73
2024/02/02 06:41:23;;;;;;;11.13;3.80;;;5.20;99.90;;;;;;5097694;28;20627;-73
2024/02/02 06:43:50;;;;;;;11.90;3.80;;;5.20;99.90;;;;;;5100099;28;20206;-73
2024/02/02 06:46:18;;;;;;;13.10;4.50;;;5.20;99.90;;;;;;5098544;28;20195;-73
2024/02/02 06:48:45;;;;;;;10.93;3.53;;;5.20;99.90;;;;;;5099548;28;20202;-72
2024/02/02 06:51:12;;;;;;;11.70;3.97;;;5.20;99.90;;;;;;5099523;28;20225;-73
2024/02/02 06:53:39;;;;;;;14.83;4.10;;;5.20;99.90;;;;;;5100240;28;20198;-73
2024/02/02 06:56:09;;;;;;;11.17;3.97;;;5.10;99.90;;;;;;5098122;28;20195;-73
2024/02/02 06:58:42;;;;;;;15.07;4.33;;;5.20;99.90;;;;;;5095201;28;20228;-73
2024/02/02 07:01:10;;;;;;;11.90;3.63;;;5.20;99.90;;;;;;5100309;28;20694;-72
2024/02/02 07:03:38;;;;;;;13.10;3.87;;;5.20;99.90;;;;;;5097699;28;20616;-72
2024/02/02 07:06:06;;;;;;;14.97;4.10;;;5.20;99.90;;;;;;5096180;28;20235;-73
2024/02/02 07:08:33;;;;;;;16.20;4.23;;;5.20;99.90;;;;;;5097012;27;20242;-73
2024/02/02 07:11:06;;;;;;;11.43;3.97;;;5.20;99.90;;;;;;5102319;28;20237;-73
2024/02/02 07:13:46;;;;;;;10.83;3.60;;;5.20;99.90;;;;;;5100699;28;20620;-73
2024/02/02 07:16:15;;;;;;;11.70;3.47;;;5.20;99.90;;;;;;5097386;28;20195;-73
2024/02/02 07:18:42;;;;;;;13.83;3.63;;;5.10;99.90;;;;;;5096464;28;20202;-73
2024/02/02 07:21:13;;;;;;;12.90;3.30;;;5.20;99.90;;;;;;5103133;27;20224;-73
2024/02/02 07:23:41;;;;;;;11.63;3.53;;;5.10;99.90;;;;;;5108608;27;20191;-73
2024/02/02 07:26:18;;;;;;;11.90;3.93;;;5.10;99.90;;;;;;5116120;27;20193;-73
2024/02/02 07:28:47;;;;;;;12.90;3.63;;;5.10;99.90;;;;;;5113878;27;20193;-73
2024/02/02 07:31:24;;;;;;;10.50;3.80;;;5.10;99.90;;;;;;5111323;27;20675;-73
2024/02/02 07:33:51;;;;;;;12.00;3.70;;;5.20;99.90;;;;;;5117307;27;20258;-73
2024/02/02 07:36:29;;;;;;;14.03;4.10;;;5.20;99.90;;;;;;5100727;27;20561;-73
2024/02/02 07:38:56;;;;;;;12.30;3.67;;;5.20;99.90;;;;;;5102062;27;20194;-73
2024/02/02 07:41:24;;;;;;;9.17;3.33;;;5.20;99.90;;;;;;5095820;28;20861;-73
2024/02/02 07:43:54;;;;;;;13.47;3.93;;;5.20;99.90;;;;;;5098901;28;20210;-73
2024/02/02 07:46:21;;;;;;;12.07;3.80;;;5.20;99.90;;;;;;5087884;28;20206;-73
2024/02/02 07:48:48;;;;;;;11.93;3.90;;;5.20;99.90;;;;;;5088241;28;20202;-72
2024/02/02 07:51:17;;;;;;;11.60;3.83;;;5.20;99.90;;;;;;5092292;28;20206;-73
2024/02/02 07:53:45;;;;;;;7.90;3.53;;;5.20;99.90;;;;;;5101299;28;20198;-73
2024/02/02 07:56:12;;;;;;;11.10;3.77;;;5.20;99.90;;;;;;5097913;28;20201;-73
2024/02/02 07:58:40;;;;;;;10.60;4.30;;;5.30;99.90;;;;;;5095967;28;20252;-73
2024/02/02 08:01:09;;;;;;;13.27;3.87;;;5.30;99.90;;;;;;5098205;28;20733;-73
2024/02/02 08:03:37;;;;;;;18.37;4.60;;;5.30;99.90;;;;;;5095404;28;20586;-72
2024/02/02 08:06:05;;;;;;;14.60;4.27;;;5.40;99.90;;;;;;5100568;28;20279;-72
2024/02/02 08:08:33;;;;;;;14.23;5.33;;;5.40;99.90;;;;;;5099939;28;20226;-73
2024/02/02 08:11:00;;;;;;;11.30;4.30;;;5.40;99.90;;;;;;5098793;28;20233;-73
2024/02/02 08:13:27;;;;;;;11.60;3.73;;;5.50;99.90;;;;;;5097171;28;20260;-73
2024/02/02 08:15:54;;;;;;;12.27;3.90;;;5.50;99.90;;;;;;5097061;28;20199;-73
2024/02/02 08:18:23;;;;;;;10.43;4.20;;;5.50;99.90;;;;;;5099726;28;20195;-73
2024/02/02 08:20:50;;;;;;;12.93;4.50;;;5.50;99.90;;;;;;5096962;28;20225;-73
2024/02/02 08:23:17;;;;;;;6.10;4.30;;;5.50;99.90;;;;;;5096783;28;20198;-73
2024/02/02 08:25:44;;;;;;;13.83;4.70;;;5.50;99.90;;;;;;5100716;28;20255;-73
2024/02/02 08:28:11;;;;;;;12.10;4.60;;;5.60;99.90;;;;;;5096182;28;20239;-72
2024/02/02 08:30:38;;;;;;;12.57;4.13;;;5.60;99.90;;;;;;5094983;28;20248;-73
2024/02/02 08:33:05;;;;;;;13.77;4.50;;;5.60;99.90;;;;;;5097113;28;20245;-73
2024/02/02 08:35:34;;;;;;;14.27;4.70;;;5.60;99.90;;;;;;5096348;28;20234;-73
2024/02/02 08:38:02;;;;;;;13.23;4.70;;;5.70;99.90;;;;;;5096261;28;20199;-73
2024/02/02 08:40:38;;;;;;;10.77;4.53;;;5.70;99.90;;;;;;5094029;28;20206;-73
2024/02/02 08:43:09;;;;;;;14.20;5.13;;;5.80;99.90;;;;;;5097365;28;20221;-74
2024/02/02 08:46:07;;;;;;;13.50;4.57;;;5.90;99.90;;;;;;5095794;28;20247;-73
2024/02/02 08:48:42;;;;;;;11.87;4.37;;;5.90;99.90;;;;;;5098002;28;20206;-73
2024/02/02 08:51:46;;;;;;;13.97;4.97;;;6.00;99.90;;;;;;5097867;28;20186;-73
2024/02/02 08:54:36;;;;;;;11.30;4.87;;;6.00;99.90;;;;;;5096567;28;20979;-72
2024/02/02 08:57:37;;;;;;;12.83;5.70;;;6.10;99.90;;;;;;5096881;28;20563;-73
2024/02/02 09:00:16;;;;;;;15.10;5.30;;;6.10;99.90;;;;;;5094808;28;20202;-73
2024/02/02 09:03:04;;;;;;;15.60;6.23;;;6.20;99.90;;;;;;5094832;28;20205;-73
2024/02/02 09:05:51;;;;;;;10.90;5.77;;;6.20;99.90;;;;;;5093737;28;20206;-73
2024/02/02 09:08:32;;;;;;;13.57;5.57;;;6.30;99.90;;;;;;5097267;28;20298;-73
2024/02/02 09:11:21;;;;;;;13.87;5.60;;;6.30;99.90;;;;;;5094687;28;20258;-73
2024/02/02 09:13:52;;;;;;;12.00;5.97;;;6.30;99.90;;;;;;5096461;28;20276;-73
2024/02/02 09:16:20;;;;;;;10.57;6.07;;;6.30;99.90;;;;;;5095312;28;20214;-73
2024/02/02 09:18:55;;;;;;;10.23;5.70;;;6.30;99.90;;;;;;5094614;28;20256;-73
2024/02/02 09:21:31;;;;;;;13.83;5.97;;;6.30;99.90;;;;;;5098147;28;20631;-73
2024/02/02 09:24:00;;;;;;;10.10;6.07;;;6.30;99.90;;;;;;5095383;28;20259;-73
2024/02/02 09:26:38;;;;;;;9.53;5.10;;;6.30;99.90;;;;;;5095649;28;20729;-73
2024/02/02 09:29:05;;;;;;;11.43;5.63;;;6.30;99.90;;;;;;5095702;28;20570;-73
2024/02/02 09:31:36;;;;;;;10.27;5.30;;;6.30;99.90;;;;;;5094089;28;20789;-72
2024/02/02 09:34:08;;;;;;;7.83;5.77;;;6.30;99.90;;;;;;5098918;28;20298;-72
2024/02/02 09:36:36;;;;;;;9.03;4.93;;;6.20;99.90;;;;;;5096903;28;20668;-73
2024/02/02 09:39:09;;;;;;;10.57;5.13;;;6.20;99.90;;;;;;5095344;28;20716;-72
2024/02/02 09:42:06;;;;;;;10.70;5.17;;;6.20;99.90;;;;;;5098031;28;20182;-73
2024/02/02 09:44:47;;;;;;;12.60;5.23;;;6.20;99.90;;;;;;5095730;28;21076;-73
2024/02/02 09:47:31;;;;;;;11.73;5.37;;;6.20;99.90;;;;;;5086616;28;20195;-72
2024/02/02 09:50:09;;;;;;;9.63;4.73;;;6.10;99.90;;;;;;5086420;28;20230;-73
2024/02/02 09:52:47;;;;;;;11.50;5.27;;;6.20;99.90;;;;;;5085946;28;20210;-73
2024/02/02 09:55:23;;;;;;;8.83;5.00;;;6.20;99.90;;;;;;5086587;28;20195;-73
2024/02/02 09:57:55;;;;;;;11.40;4.83;;;6.20;99.90;;;;;;5097029;28;20201;-73
2024/02/02 10:00:30;;;;;;;10.77;5.07;;;6.20;99.90;;;;;;5096403;28;20195;-72
2024/02/02 10:03:09;;;;;;;10.13;4.93;;;6.20;99.90;;;;;;5094347;28;20624;-73
2024/02/02 10:05:50;;;;;;;11.17;4.60;;;6.20;99.90;;;;;;5085941;28;20240;-73
2024/02/02 10:08:32;;;;;;;5.80;4.30;;;6.20;99.90;;;;;;5086549;28;20190;-72
2024/02/02 10:11:20;;;;;;;8.83;4.40;;;6.30;99.90;;;;;;5086913;28;20258;-73
2024/02/02 10:14:00;;;;;;;8.23;4.03;;;6.30;99.90;;;;;;5099947;28;20222;-73
2024/02/02 10:16:35;;;;;;;10.40;3.93;;;6.30;99.90;;;;;;5097799;28;20194;-73
2024/02/02 10:19:25;;;;;;;5.73;3.33;;;6.30;99.90;;;;;;5093036;28;20236;-73
2024/02/02 10:22:05;;;;;;;7.40;3.93;;;6.40;99.90;;;;;;5090008;28;20268;-73
2024/02/02 10:25:03;;;;;;;8.60;4.00;;;6.40;99.90;;;;;;5098263;28;20342;-73
2024/02/02 10:27:41;;;;;;;10.10;3.73;;;6.40;99.90;;;;;;5094036;28;20199;-73
2024/02/02 10:30:20;;;;;;;4.90;3.10;;;6.50;99.90;;;;;;5101659;28;20244;-73
2024/02/02 10:33:06;;;;;;;7.07;3.73;;;6.50;99.90;;;;;;5103262;27;20218;-73
2024/02/02 10:35:41;;;;;;;7.37;3.20;;;6.60;99.90;;;;;;5095704;28;20191;-73
2024/02/02 10:38:20;;;;;;;8.10;2.97;;;6.60;99.90;;;;;;5096574;28;20181;-73
2024/02/02 10:40:57;;;;;;;7.93;2.57;;;6.70;99.90;;;;;;5103107;28;20270;-73
2024/02/02 10:43:33;;;;;;;6.07;2.30;;;6.80;99.90;;;;;;5107955;28;20263;-73
2024/02/02 10:46:13;;;;;;;6.03;2.87;;;6.80;99.90;;;;;;5101457;27;20199;-73
2024/02/02 10:48:58;;;;;;;2.83;2.47;;;6.80;99.90;;;;;;5104002;28;20191;-73
2024/02/02 10:51:39;;;;;;;4.27;2.50;;;6.90;99.90;;;;;;5101520;28;20246;-73
2024/02/02 10:54:20;;;;;;;4.17;2.40;;;6.90;99.90;;;;;;5099517;28;20255;-73
2024/02/02 10:56:58;;;;;;;7.20;2.50;;;7.00;99.90;;;;;;5100532;28;20198;-73
2024/02/02 10:59:39;;;;;;;5.70;2.30;;;7.00;99.90;;;;;;5101964;28;20222;-73
2024/02/02 11:02:15;;;;;;;7.53;2.77;;;7.00;99.90;;;;;;5104930;28;20795;-73
2024/02/02 11:04:52;;;;;;;4.60;2.00;;;7.00;99.90;;;;;;5102580;28;20579;-73
2024/02/02 11:07:24;;;;;;;4.30;2.53;;;7.00;99.90;;;;;;5103524;28;20239;-73
2024/02/02 11:09:57;;;;;;;4.20;2.00;;;7.00;99.90;;;;;;5096670;28;20537;-73
2024/02/02 11:12:36;;;;;;;5.27;2.50;;;7.00;99.90;;;;;;5097307;27;20226;-73
2024/02/02 11:15:20;;;;;;;7.20;2.93;;;7.00;99.90;;;;;;5101862;28;20204;-73
2024/02/02 11:17:56;;;;;;;4.67;2.60;;;7.00;99.90;;;;;;5095801;28;20252;-73
2024/02/02 11:20:38;;;;;;;10.53;2.83;;;7.00;99.90;;;;;;5104781;27;20195;-73
2024/02/02 11:23:13;;;;;;;7.87;3.33;;;7.00;99.90;;;;;;5106709;27;20207;-73
2024/02/02 11:25:49;;;;;;;6.87;2.90;;;7.00;99.90;;;;;;5116681;27;20252;-73
2024/02/02 11:28:22;;;;;;;6.97;3.60;;;7.10;99.90;;;;;;5109779;27;20208;-73
2024/02/02 11:31:00;;;;;;;7.60;3.00;;;7.10;99.90;;;;;;5116594;27;20186;-73
2024/02/02 11:33:46;;;;;;;10.60;3.47;;;7.10;99.90;;;;;;5096840;27;20214;-73
2024/02/02 11:36:25;;;;;;;7.83;3.33;;;7.10;99.90;;;;;;5106740;27;20691;-73
2024/02/02 11:39:07;;;;;;;6.53;3.30;;;7.10;99.90;;;;;;5106357;27;20641;-73
2024/02/02 11:41:37;;;;;;;7.27;3.33;;;7.10;99.90;;;;;;5107294;27;20194;-73
2024/02/02 11:44:04;;;;;;;5.43;3.43;;;7.20;99.90;;;;;;5099421;28;20195;-73
2024/02/02 11:46:33;;;;;;;8.53;3.67;;;7.20;99.90;;;;;;5101575;28;20279;-73
2024/02/02 11:49:07;;;;;;;4.43;3.33;;;7.30;99.90;;;;;;5103092;28;20285;-73
2024/02/02 11:51:36;;;;;;;8.87;3.50;;;7.30;99.90;;;;;;5108622;27;20197;-73
2024/02/02 11:54:11;;;;;;;9.20;4.00;;;7.20;99.90;;;;;;5108703;28;20243;-73
2024/02/02 11:56:43;;;;;;;10.77;3.60;;;7.20;99.90;;;;;;5088605;28;20608;-73
2024/02/02 11:59:16;;;;;;;7.63;3.67;;;7.20;99.90;;;;;;5108492;28;20244;-73
2024/02/02 12:01:57;;;;;;;8.63;3.77;;;7.20;99.90;;;;;;5108425;28;20201;-73
2024/02/02 12:04:37;;;;;;;7.00;3.47;;;7.20;99.90;;;;;;5102543;28;20536;-73
2024/02/02 12:07:20;;;;;;;6.07;3.53;;;7.20;99.90;;;;;;5088236;28;20195;-73
2024/02/02 12:09:50;;;;;;;9.57;3.77;;;7.20;99.90;;;;;;5087990;28;20198;-73
2024/02/02 12:12:22;;;;;;;6.57;3.37;;;7.20;99.90;;;;;;5088014;28;20238;-73
2024/02/02 12:14:51;;;;;;;9.97;3.40;;;7.20;99.90;;;;;;5099833;28;20306;-73
2024/02/02 12:17:21;;;;;;;9.47;3.30;;;7.20;99.90;;;;;;5091853;28;20266;-73
2024/02/02 12:19:48;;;;;;;9.23;3.33;;;7.30;99.90;;;;;;5108583;28;20210;-73
2024/02/02 12:22:15;;;;;;;11.27;3.80;;;7.30;99.90;;;;;;5108068;28;20237;-74
2024/02/02 12:24:42;;;;;;;9.00;3.17;;;7.30;99.90;;;;;;5108345;28;20263;-73
2024/02/02 12:27:09;;;;;;;8.43;3.47;;;7.20;99.90;;;;;;5107728;28;20251;-73
2024/02/02 12:29:36;;;;;;;7.90;3.43;;;7.20;99.90;;;;;;5108312;28;20206;-73
2024/02/02 12:32:05;;;;;;;8.30;3.27;;;7.20;99.90;;;;;;5100434;28;20298;-73
2024/02/02 12:34:34;;;;;;;8.47;3.27;;;7.10;99.90;;;;;;5086663;28;20417;-72
2024/02/02 12:37:01;;;;;;;8.57;3.53;;;7.10;99.90;;;;;;5087332;28;20202;-72
2024/02/02 12:39:31;;;;;;;10.87;3.30;;;7.10;99.90;;;;;;5087116;28;20203;-73
2024/02/02 12:41:58;;;;;;;9.30;3.20;;;7.10;99.90;;;;;;5086815;28;20613;-73
2024/02/02 12:44:26;;;;;;;9.40;3.40;;;7.20;99.90;;;;;;5086844;28;20206;-73
2024/02/02 12:46:54;;;;;;;8.90;3.23;;;7.20;99.90;;;;;;5086751;28;20237;-72
2024/02/02 12:49:22;;;;;;;10.87;3.87;;;7.20;99.90;;;;;;5095870;28;20870;-73
2024/02/02 12:51:53;;;;;;;7.97;3.27;;;7.20;99.90;;;;;;5094428;28;20290;-73
2024/02/02 12:54:20;;;;;;;9.03;3.57;;;7.20;99.90;;;;;;5094625;28;20288;-73
2024/02/02 12:56:47;;;;;;;10.37;3.77;;;7.20;99.90;;;;;;5097023;28;20201;-73
2024/02/02 12:59:17;;;;;;;10.20;3.70;;;7.20;99.90;;;;;;5098204;28;20195;-73
2024/02/02 13:01:45;;;;;;;7.93;3.87;;;7.20;99.90;;;;;;5096511;28;20198;-73
2024/02/02 13:04:14;;;;;;;8.97;3.70;;;7.20;99.90;;;;;;5097754;28;20717;-73
2024/02/02 13:06:41;;;;;;;7.40;3.30;;;7.10;99.90;;;;;;5089077;28;20228;-73